createdAt,value
2017-08-31T00:02:12.445Z,100304
2017-08-31T00:04:40.598Z,100300
2017-08-31T00:07:08.798Z,100309
2017-08-31T00:09:36.951Z,100301
2017-08-31T00:12:05.102Z,100311
2017-08-31T00:14:33.282Z,100313
2017-08-31T00:17:01.435Z,100311
2017-08-31T00:19:29.590Z,100315
2017-08-31T00:21:57.785Z,100311
2017-08-31T00:24:25.953Z,100315
2017-08-31T00:26:54.128Z,100317
2017-08-31T00:29:22.317Z,100332
2017-08-31T00:31:50.514Z,100333
2017-08-31T00:34:18.735Z,100336
2017-08-31T00:36:46.905Z,100335
2017-08-31T00:39:15.094Z,100330
2017-08-31T00:41:43.265Z,100346
2017-08-31T00:44:11.470Z,100341
2017-08-31T00:46:39.647Z,100341
2017-08-31T00:49:07.820Z,100336
2017-08-31T00:51:36.003Z,100336
2017-08-31T00:54:04.173Z,100346
2017-08-31T00:56:32.344Z,100346
2017-08-31T00:59:00.519Z,100344
2017-08-31T01:01:28.689Z,100348
2017-08-31T01:03:56.862Z,100343
2017-08-31T01:06:25.056Z,100355
2017-08-31T01:08:53.225Z,100365
2017-08-31T01:11:21.394Z,100362
2017-08-31T01:13:49.576Z,100356
2017-08-31T01:16:17.744Z,100363
2017-08-31T01:18:45.946Z,100364
2017-08-31T01:21:14.099Z,100360
2017-08-31T01:23:42.271Z,100352
2017-08-31T01:26:10.459Z,100347
2017-08-31T01:28:38.614Z,100354
2017-08-31T01:31:06.788Z,100370
2017-08-31T01:33:34.970Z,100359
2017-08-31T01:36:03.148Z,100363
2017-08-31T01:38:31.317Z,100362
2017-08-31T01:40:59.515Z,100363
2017-08-31T01:43:27.690Z,100367
2017-08-31T01:45:55.858Z,100363
2017-08-31T01:48:24.061Z,100368
2017-08-31T01:50:52.215Z,100367
2017-08-31T01:53:20.366Z,100377
2017-08-31T01:55:48.560Z,100385
2017-08-31T01:58:16.726Z,100383
2017-08-31T02:00:44.878Z,100367
2017-08-31T02:03:13.055Z,100359
2017-08-31T02:05:41.224Z,100365
2017-08-31T02:08:09.396Z,100378
2017-08-31T02:10:37.575Z,100382
2017-08-31T02:13:05.722Z,100402
2017-08-31T02:15:33.876Z,100401
2017-08-31T02:18:02.054Z,100394
2017-08-31T02:20:30.202Z,100397
2017-08-31T02:22:58.347Z,100406
2017-08-31T02:25:26.534Z,100401
2017-08-31T02:27:54.686Z,100403
2017-08-31T02:30:22.839Z,100406
2017-08-31T02:32:51.040Z,100405
2017-08-31T02:35:19.212Z,100411
2017-08-31T02:37:48.126Z,100418
2017-08-31T02:40:16.307Z,100415
2017-08-31T02:42:44.483Z,100416
2017-08-31T02:45:12.643Z,100418
2017-08-31T02:47:40.821Z,100414
2017-08-31T02:50:09.000Z,100408
2017-08-31T02:52:37.159Z,100407
2017-08-31T02:55:05.363Z,100405
2017-08-31T02:57:33.518Z,100422
2017-08-31T03:00:01.673Z,100412
2017-08-31T03:02:29.859Z,100410
2017-08-31T03:04:58.034Z,100406
2017-08-31T03:07:26.186Z,100406
2017-08-31T03:09:55.562Z,100406
2017-08-31T03:12:23.728Z,100408
2017-08-31T03:14:51.888Z,100411
2017-08-31T03:17:20.088Z,100418
2017-08-31T03:19:48.260Z,100413
2017-08-31T03:22:16.419Z,100409
2017-08-31T03:24:44.604Z,100411
2017-08-31T03:27:12.758Z,100415
2017-08-31T03:29:40.906Z,100434
2017-08-31T03:32:09.113Z,100429
2017-08-31T03:34:37.289Z,100441
2017-08-31T03:37:05.441Z,100437
2017-08-31T03:39:33.644Z,100436
2017-08-31T03:42:01.802Z,100431
2017-08-31T03:44:29.953Z,100424
2017-08-31T03:46:58.135Z,100432
2017-08-31T03:49:26.294Z,100426
2017-08-31T03:51:54.452Z,100429
2017-08-31T03:54:23.470Z,100431
2017-08-31T03:56:51.627Z,100437
2017-08-31T03:59:19.781Z,100434
2017-08-31T04:01:47.977Z,100439
2017-08-31T04:04:16.136Z,100439
2017-08-31T04:06:44.306Z,100426
2017-08-31T04:09:12.487Z,100435
2017-08-31T04:11:40.657Z,100431
2017-08-31T04:14:08.830Z,100423
2017-08-31T04:16:37.019Z,100426
2017-08-31T04:19:05.189Z,100428
2017-08-31T04:21:33.353Z,100435
2017-08-31T04:24:01.549Z,100426
2017-08-31T04:26:30.472Z,100428
2017-08-31T04:28:58.632Z,100434
2017-08-31T04:31:26.814Z,100438
2017-08-31T04:33:54.957Z,100445
2017-08-31T04:36:23.129Z,100440
2017-08-31T04:38:51.322Z,100444
2017-08-31T04:41:20.254Z,100432
2017-08-31T04:43:48.422Z,100445
2017-08-31T04:46:16.617Z,100448
2017-08-31T04:48:44.771Z,100450
2017-08-31T04:51:12.927Z,100461
2017-08-31T04:53:41.122Z,100460
2017-08-31T04:56:09.296Z,100476
2017-08-31T04:58:37.461Z,100469
2017-08-31T05:01:05.645Z,100463
2017-08-31T05:03:33.794Z,100464
2017-08-31T05:06:01.965Z,100467
2017-08-31T05:08:30.158Z,100471
2017-08-31T05:10:58.331Z,100474
2017-08-31T05:13:26.516Z,100458
2017-08-31T05:15:54.715Z,100459
2017-08-31T05:18:22.869Z,100471
2017-08-31T05:20:51.025Z,100461
2017-08-31T05:23:19.225Z,100467
2017-08-31T05:25:47.400Z,100476
2017-08-31T05:28:15.569Z,100474
2017-08-31T05:30:43.765Z,100477
2017-08-31T05:33:11.915Z,100483
2017-08-31T05:35:40.085Z,100479
2017-08-31T05:38:08.283Z,100491
2017-08-31T05:40:36.435Z,100490
2017-08-31T05:43:04.583Z,100476
2017-08-31T05:45:32.765Z,100479
2017-08-31T05:48:00.918Z,100476
2017-08-31T05:50:29.071Z,100468
2017-08-31T05:52:57.305Z,100478
2017-08-31T05:55:25.471Z,100485
2017-08-31T05:57:53.644Z,100500
2017-08-31T06:00:21.824Z,100496
2017-08-31T06:02:50.020Z,100502
2017-08-31T06:05:18.192Z,100510
2017-08-31T06:07:46.390Z,100514
2017-08-31T06:10:14.562Z,100522
2017-08-31T06:12:42.714Z,100508
2017-08-31T06:15:10.912Z,100517
2017-08-31T06:17:39.069Z,100517
2017-08-31T06:20:07.248Z,100521
2017-08-31T06:22:35.453Z,100521
2017-08-31T06:25:03.613Z,100516
2017-08-31T06:27:31.785Z,100512
2017-08-31T06:29:59.962Z,100505
2017-08-31T06:32:28.129Z,100503
2017-08-31T06:34:56.282Z,100507
2017-08-31T06:37:24.467Z,100502
2017-08-31T06:39:52.622Z,100513
2017-08-31T06:42:20.794Z,100520
2017-08-31T06:44:48.968Z,100522
2017-08-31T06:47:17.148Z,100529
2017-08-31T06:49:45.320Z,100550
2017-08-31T06:52:13.528Z,100556
2017-08-31T06:54:41.697Z,100557
2017-08-31T06:57:09.861Z,100535
2017-08-31T06:59:38.045Z,100549
2017-08-31T07:02:06.215Z,100552
2017-08-31T07:04:34.384Z,100570
2017-08-31T07:07:02.575Z,100563
2017-08-31T07:09:30.744Z,100578
2017-08-31T07:11:58.911Z,100593
2017-08-31T07:14:27.109Z,100595
2017-08-31T07:16:55.275Z,100621
2017-08-31T07:19:23.423Z,100624
2017-08-31T07:21:51.620Z,100626
2017-08-31T07:24:19.795Z,100630
2017-08-31T07:26:47.941Z,100636
2017-08-31T07:29:16.138Z,100643
2017-08-31T07:31:44.300Z,100657
2017-08-31T07:34:12.476Z,100662
2017-08-31T07:36:40.650Z,100678
2017-08-31T07:39:08.809Z,100694
2017-08-31T07:41:36.954Z,100715
2017-08-31T07:44:05.159Z,100703
2017-08-31T07:46:33.314Z,100700
2017-08-31T07:49:01.464Z,100701
2017-08-31T07:51:30.406Z,100705
2017-08-31T07:53:58.576Z,100697
2017-08-31T07:56:26.729Z,100706
2017-08-31T07:58:55.256Z,100709
2017-08-31T08:01:23.425Z,100716
2017-08-31T08:03:51.600Z,100728
2017-08-31T08:06:19.790Z,100723
2017-08-31T08:08:48.755Z,100718
2017-08-31T08:11:16.908Z,100731
2017-08-31T08:13:45.412Z,100740
2017-08-31T08:16:13.560Z,100737
2017-08-31T08:18:41.725Z,100739
2017-08-31T08:21:09.909Z,100745
2017-08-31T08:23:38.054Z,100752
2017-08-31T08:26:06.207Z,100750
2017-08-31T08:28:34.402Z,100739
2017-08-31T08:31:02.564Z,100748
2017-08-31T08:33:30.706Z,100739
2017-08-31T08:35:58.906Z,100749
2017-08-31T08:38:27.054Z,100755
2017-08-31T08:40:55.217Z,100757
2017-08-31T08:43:23.408Z,100771
2017-08-31T08:45:51.549Z,100756
2017-08-31T08:48:19.698Z,100768
2017-08-31T08:50:48.662Z,100776
2017-08-31T08:53:16.809Z,100789
2017-08-31T08:55:44.963Z,100784
2017-08-31T08:58:13.157Z,100797
2017-08-31T09:00:41.320Z,100792
2017-08-31T09:03:09.481Z,100791
2017-08-31T09:05:37.672Z,100805
2017-08-31T09:08:05.814Z,100811
2017-08-31T09:10:33.969Z,100814
2017-08-31T09:13:02.147Z,100816
2017-08-31T09:15:30.298Z,100826
2017-08-31T09:17:58.462Z,100847
2017-08-31T09:20:26.638Z,100849
2017-08-31T09:22:54.804Z,100836
2017-08-31T09:25:22.951Z,100848
2017-08-31T09:27:51.163Z,100853
2017-08-31T09:30:19.336Z,100854
2017-08-31T09:32:47.478Z,100861
2017-08-31T09:35:15.664Z,100881
2017-08-31T09:37:43.824Z,100883
2017-08-31T09:40:11.989Z,100879
2017-08-31T09:42:40.158Z,100860
2017-08-31T09:45:08.307Z,100878
2017-08-31T09:47:36.456Z,100883
2017-08-31T09:50:04.630Z,100893
2017-08-31T09:52:32.775Z,100906
2017-08-31T09:55:00.942Z,100915
2017-08-31T09:57:29.118Z,100915
2017-08-31T09:59:57.284Z,100910
2017-08-31T10:02:25.430Z,100896
2017-08-31T10:04:53.601Z,100895
2017-08-31T10:07:21.764Z,100904
2017-08-31T10:09:49.907Z,100928
2017-08-31T10:12:18.086Z,100920
2017-08-31T10:14:46.251Z,100944
2017-08-31T10:17:14.397Z,100934
2017-08-31T10:19:43.351Z,100935
2017-08-31T10:22:11.494Z,100936
2017-08-31T10:24:39.638Z,100927
2017-08-31T10:27:07.818Z,100956
2017-08-31T10:29:36.730Z,100957
2017-08-31T10:32:04.874Z,100960
2017-08-31T10:34:33.055Z,100955
2017-08-31T10:37:01.203Z,100967
2017-08-31T10:39:29.365Z,100968
2017-08-31T10:41:57.542Z,100954
2017-08-31T10:44:25.688Z,100976
2017-08-31T10:46:53.869Z,100978
2017-08-31T10:49:22.069Z,100984
2017-08-31T10:51:50.225Z,100986
2017-08-31T10:54:18.375Z,101002
2017-08-31T10:56:46.572Z,101016
2017-08-31T10:59:14.719Z,101027
2017-08-31T11:01:42.890Z,101024
2017-08-31T11:04:11.085Z,101023
2017-08-31T11:06:39.236Z,101024
2017-08-31T11:09:07.402Z,101034
2017-08-31T11:11:35.591Z,101036
2017-08-31T11:14:03.750Z,101036
2017-08-31T11:16:31.922Z,101048
2017-08-31T11:19:00.126Z,101050
2017-08-31T11:21:28.281Z,101059
2017-08-31T11:23:56.448Z,101053
2017-08-31T11:26:24.615Z,101066
2017-08-31T11:28:52.907Z,101083
2017-08-31T11:31:21.074Z,101110
2017-08-31T11:33:49.228Z,101108
2017-08-31T11:36:17.466Z,101105
2017-08-31T11:38:45.530Z,101095
2017-08-31T11:41:13.722Z,101101
2017-08-31T11:43:41.886Z,101094
2017-08-31T11:46:10.050Z,101092
2017-08-31T11:48:38.257Z,101095
2017-08-31T11:51:06.412Z,101109
2017-08-31T11:53:34.559Z,101114
2017-08-31T11:56:02.738Z,101119
2017-08-31T11:58:30.884Z,101124
2017-08-31T12:00:59.049Z,101125
2017-08-31T12:03:27.241Z,101131
2017-08-31T12:05:55.387Z,101131
2017-08-31T12:08:23.556Z,101142
2017-08-31T12:10:51.728Z,101131
2017-08-31T12:13:19.906Z,101135
2017-08-31T12:15:48.054Z,101138
2017-08-31T12:18:16.260Z,101141
2017-08-31T12:20:44.421Z,101147
2017-08-31T12:23:12.580Z,101146
2017-08-31T12:25:40.777Z,101154
2017-08-31T12:28:08.947Z,101141
2017-08-31T12:30:37.086Z,101153
2017-08-31T12:33:05.266Z,101155
2017-08-31T12:35:33.420Z,101171
2017-08-31T12:38:02.348Z,101168
2017-08-31T12:40:30.841Z,101174
2017-08-31T12:42:59.005Z,101168
2017-08-31T12:45:27.150Z,101175
2017-08-31T12:47:55.341Z,101177
2017-08-31T12:50:23.487Z,101186
2017-08-31T12:52:51.653Z,101190
2017-08-31T12:55:19.828Z,101198
2017-08-31T12:57:48.014Z,101199
2017-08-31T13:00:16.180Z,101199
2017-08-31T13:02:44.919Z,101200
2017-08-31T13:08:12.001Z,101194
2017-08-31T13:10:40.160Z,101200
2017-08-31T13:13:08.330Z,101199
2017-08-31T13:15:36.534Z,101203
2017-08-31T13:18:04.696Z,101209
2017-08-31T13:20:32.864Z,101207
2017-08-31T13:23:01.042Z,101215
2017-08-31T13:25:29.212Z,101214
2017-08-31T13:27:57.350Z,101222
2017-08-31T13:30:25.541Z,101216
2017-08-31T13:32:53.705Z,101219
2017-08-31T13:35:21.879Z,101237
2017-08-31T13:37:50.049Z,101240
2017-08-31T13:40:18.957Z,101243
2017-08-31T13:42:47.102Z,101253
2017-08-31T13:45:16.052Z,101258
2017-08-31T13:47:44.194Z,101266
2017-08-31T13:50:12.349Z,101264
2017-08-31T13:52:40.523Z,101275
2017-08-31T13:55:08.668Z,101272
2017-08-31T13:57:36.818Z,101280
2017-08-31T14:00:04.992Z,101279
2017-08-31T14:02:33.134Z,101282
2017-08-31T14:05:01.300Z,101279
2017-08-31T14:07:29.474Z,101289
2017-08-31T14:09:57.640Z,101291
2017-08-31T14:12:25.784Z,101294
2017-08-31T14:14:53.984Z,101308
2017-08-31T14:17:22.135Z,101306
2017-08-31T14:19:50.286Z,101307
2017-08-31T14:22:18.472Z,101305
2017-08-31T14:24:46.623Z,101302
2017-08-31T14:27:14.771Z,101314
2017-08-31T14:29:42.938Z,101311
2017-08-31T14:32:11.088Z,101319
2017-08-31T14:34:39.255Z,101327
2017-08-31T14:37:07.444Z,101332
2017-08-31T14:39:35.592Z,101338
2017-08-31T14:42:03.765Z,101347
2017-08-31T14:44:31.931Z,101345
2017-08-31T14:47:00.094Z,101348
2017-08-31T14:49:28.260Z,101344
2017-08-31T14:51:56.431Z,101340
2017-08-31T14:54:24.574Z,101362
2017-08-31T14:56:52.741Z,101361
2017-08-31T14:59:20.913Z,101357
2017-08-31T15:01:49.844Z,101349
2017-08-31T15:04:18.020Z,101357
2017-08-31T15:06:46.213Z,101360
2017-08-31T15:09:14.378Z,101365
2017-08-31T15:11:42.525Z,101357
2017-08-31T15:14:10.703Z,101370
2017-08-31T15:16:38.845Z,101370
2017-08-31T15:19:07.012Z,101381
2017-08-31T15:21:35.208Z,101375
2017-08-31T15:24:03.363Z,101375
2017-08-31T15:26:31.524Z,101373
2017-08-31T15:28:59.700Z,101385
2017-08-31T15:31:27.873Z,101381
2017-08-31T15:33:56.075Z,101381
2017-08-31T15:36:24.286Z,101386
2017-08-31T15:38:52.448Z,101383
2017-08-31T15:41:20.590Z,101389
2017-08-31T15:43:48.771Z,101384
2017-08-31T15:46:16.933Z,101395
2017-08-31T15:48:45.083Z,101397
2017-08-31T15:51:13.269Z,101404
2017-08-31T15:53:41.464Z,101411
2017-08-31T15:56:09.614Z,101412
2017-08-31T15:58:37.783Z,101416
2017-08-31T16:01:05.931Z,101426
2017-08-31T16:03:34.093Z,101426
2017-08-31T16:06:02.283Z,101430
2017-08-31T16:08:30.445Z,101428
2017-08-31T16:10:58.604Z,101433
2017-08-31T16:13:26.778Z,101435
2017-08-31T16:15:54.945Z,101439
2017-08-31T16:18:23.104Z,101425
2017-08-31T16:20:51.276Z,101433
2017-08-31T16:23:19.420Z,101438
2017-08-31T16:25:47.591Z,101427
2017-08-31T16:28:15.785Z,101435
2017-08-31T16:30:43.949Z,101441
2017-08-31T16:33:12.120Z,101447
2017-08-31T16:35:40.314Z,101444
2017-08-31T16:38:08.476Z,101446
2017-08-31T16:40:36.638Z,101450
2017-08-31T16:43:04.829Z,101454
2017-08-31T16:45:32.988Z,101454
2017-08-31T16:48:01.149Z,101460
2017-08-31T16:50:29.324Z,101479
2017-08-31T16:52:57.481Z,101467
2017-08-31T16:55:25.628Z,101480
2017-08-31T16:57:54.588Z,101469
2017-08-31T17:00:22.738Z,101470
2017-08-31T17:02:50.901Z,101475
2017-08-31T17:05:19.078Z,101487
2017-08-31T17:07:47.221Z,101494
2017-08-31T17:10:15.385Z,101503
2017-08-31T17:12:43.562Z,101499
2017-08-31T17:15:11.703Z,101500
2017-08-31T17:17:39.846Z,101499
2017-08-31T17:20:08.036Z,101494
2017-08-31T17:22:36.192Z,101508
2017-08-31T17:25:04.336Z,101506
2017-08-31T17:27:32.510Z,101504
2017-08-31T17:30:00.753Z,101517
2017-08-31T17:32:28.949Z,101519
2017-08-31T17:34:57.130Z,101516
2017-08-31T17:37:25.276Z,101531
2017-08-31T17:39:53.440Z,101531
2017-08-31T17:42:21.636Z,101533
2017-08-31T17:44:49.800Z,101542
2017-08-31T17:47:17.948Z,101545
2017-08-31T17:49:46.121Z,101556
2017-08-31T17:52:14.280Z,101553
2017-08-31T17:54:42.445Z,101556
2017-08-31T17:57:10.633Z,101559
2017-08-31T17:59:38.778Z,101565
2017-08-31T18:02:06.941Z,101556
2017-08-31T18:04:35.132Z,101567
2017-08-31T18:07:03.277Z,101568
2017-08-31T18:09:31.427Z,101567
2017-08-31T18:11:59.598Z,101573
2017-08-31T18:14:27.761Z,101573
2017-08-31T18:16:55.942Z,101576
2017-08-31T18:19:24.121Z,101582
2017-08-31T18:21:52.263Z,101587
2017-08-31T18:24:20.413Z,101593
2017-08-31T18:26:48.605Z,101600
2017-08-31T18:29:16.746Z,101592
2017-08-31T18:31:44.913Z,101594
2017-08-31T18:34:13.089Z,101597
2017-08-31T18:36:41.229Z,101595
2017-08-31T18:39:09.370Z,101613
2017-08-31T18:41:37.549Z,101606
2017-08-31T18:44:05.789Z,101617
2017-08-31T18:46:33.947Z,101613
2017-08-31T18:49:02.136Z,101609
2017-08-31T18:51:30.281Z,101613
2017-08-31T18:53:58.423Z,101617
2017-08-31T18:56:26.599Z,101606
2017-08-31T18:58:54.746Z,101619
2017-08-31T19:01:22.913Z,101621
2017-08-31T19:03:51.082Z,101627
2017-08-31T19:06:19.245Z,101631
2017-08-31T19:08:47.406Z,101643
2017-08-31T19:11:15.593Z,101638
2017-08-31T19:13:43.734Z,101636
2017-08-31T19:16:11.889Z,101639
2017-08-31T19:18:40.851Z,101647
2017-08-31T19:21:09.013Z,101654
2017-08-31T19:23:37.154Z,101664
2017-08-31T19:26:05.353Z,101650
2017-08-31T19:28:33.516Z,101656
2017-08-31T19:31:01.658Z,101652
2017-08-31T19:33:29.829Z,101658
2017-08-31T19:35:57.974Z,101662
2017-08-31T19:38:26.117Z,101650
2017-08-31T19:40:54.286Z,101653
2017-08-31T19:43:22.449Z,101647
2017-08-31T19:45:50.595Z,101658
2017-08-31T19:48:18.770Z,101661
2017-08-31T19:50:46.941Z,101666
2017-08-31T19:53:15.104Z,101667
2017-08-31T19:55:43.278Z,101664
2017-08-31T19:58:11.425Z,101673
2017-08-31T20:00:39.570Z,101678
2017-08-31T20:03:07.754Z,101686
2017-08-31T20:05:36.161Z,101687
2017-08-31T20:08:04.322Z,101698
2017-08-31T20:10:32.513Z,101698
2017-08-31T20:13:00.657Z,101685
2017-08-31T20:15:28.802Z,101685
2017-08-31T20:17:56.995Z,101694
2017-08-31T20:20:25.161Z,101693
2017-08-31T20:22:53.329Z,101693
2017-08-31T20:25:22.285Z,101695
2017-08-31T20:27:50.434Z,101689
2017-08-31T20:30:18.600Z,101693
2017-08-31T20:32:46.789Z,101705
2017-08-31T20:35:14.960Z,101704
2017-08-31T20:37:43.120Z,101697
2017-08-31T20:40:11.291Z,101706
2017-08-31T20:42:39.436Z,101705
2017-08-31T20:45:08.351Z,101709
2017-08-31T20:47:36.525Z,101718
2017-08-31T20:50:04.676Z,101717
2017-08-31T20:52:32.822Z,101722
2017-08-31T20:55:01.012Z,101719
2017-08-31T20:57:29.172Z,101718
2017-08-31T20:59:57.336Z,101719
2017-08-31T21:02:25.522Z,101713
2017-08-31T21:04:53.670Z,101712
2017-08-31T21:07:21.832Z,101726
2017-08-31T21:09:49.997Z,101718
2017-08-31T21:12:18.141Z,101724
2017-08-31T21:14:46.307Z,101727
2017-08-31T21:17:14.479Z,101724
2017-08-31T21:19:42.633Z,101732
2017-08-31T21:22:10.778Z,101736
2017-08-31T21:24:39.839Z,101742
2017-08-31T21:27:08.767Z,101745
2017-08-31T21:29:36.940Z,101754
2017-08-31T21:32:05.134Z,101749
2017-08-31T21:34:32.834Z,101748
2017-08-31T21:37:00.978Z,101764
2017-08-31T21:39:29.164Z,101766
2017-08-31T21:41:57.301Z,101764
2017-08-31T21:44:25.445Z,101756
2017-08-31T21:46:53.637Z,101761
2017-08-31T21:49:21.803Z,101763
2017-08-31T21:51:50.728Z,101756
2017-08-31T21:54:18.926Z,101760
2017-08-31T21:56:47.092Z,101760
2017-08-31T21:59:15.253Z,101752
2017-08-31T22:01:43.418Z,101760
2017-08-31T22:04:11.599Z,101758
2017-08-31T22:06:39.742Z,101754
2017-08-31T22:09:07.944Z,101763
2017-08-31T22:11:36.107Z,101764
2017-08-31T22:14:04.271Z,101760
2017-08-31T22:16:32.460Z,101762
2017-08-31T22:19:00.621Z,101752
2017-08-31T22:21:28.762Z,101753
2017-08-31T22:23:56.952Z,101745
2017-08-31T22:26:25.120Z,101758
2017-08-31T22:28:54.043Z,101756
2017-08-31T22:31:22.229Z,101754
2017-08-31T22:33:50.384Z,101762
2017-08-31T22:36:18.527Z,101758
2017-08-31T22:38:46.726Z,101770
2017-08-31T22:41:14.874Z,101764
2017-08-31T22:43:43.022Z,101766
2017-08-31T22:46:11.198Z,101760
2017-08-31T22:48:39.366Z,101758
2017-08-31T22:51:07.512Z,101758
2017-08-31T22:53:35.679Z,101763
2017-08-31T22:56:03.831Z,101767
2017-08-31T22:58:43.833Z,101777
2017-08-31T23:01:11.995Z,101772
2017-08-31T23:03:40.983Z,101776
2017-08-31T23:06:09.177Z,101768
2017-08-31T23:08:37.347Z,101766
2017-08-31T23:11:05.509Z,101768
2017-08-31T23:13:33.681Z,101763
2017-08-31T23:16:01.844Z,101768
2017-08-31T23:18:29.995Z,101770
2017-08-31T23:20:58.212Z,101774
2017-08-31T23:23:26.356Z,101778
2017-08-31T23:25:54.511Z,101776
2017-08-31T23:28:22.701Z,101786
2017-08-31T23:30:50.871Z,101784
2017-08-31T23:33:19.805Z,101791
2017-08-31T23:35:48.008Z,101783
2017-08-31T23:38:16.171Z,101781
2017-08-31T23:40:44.317Z,101784
2017-08-31T23:43:12.510Z,101783
2017-08-31T23:45:40.655Z,101778
2017-08-31T23:48:10.896Z,101786
2017-08-31T23:50:39.089Z,101787
2017-08-31T23:53:07.257Z,101791
2017-08-31T23:55:35.441Z,101797
2017-08-31T23:58:03.696Z,101801
